MDY weather

Henderson Field
Sand Island, Midway Islands, United States Minor Outlying Islands

Public forecast

Using degrees Celsius for public forecast. Weather courtesy of forecast.io.

METAR (pilot weather report)

Retrieved 2019/09/23 06:56 UTC (57 minutes ago):

PMDY 230656Z AUTO 06007KT 9SM FEW065 28/23 A3006 RMK AO2 SLP179 T02780233

TAF (pilot weather forecast)

Retrieved 2019/09/23 06:22 UTC (2 hours ago):

TAF PMDY 230520Z 2306/2406 VRB06KT P6SM SCT020 FM231900 VRB06KT P6SM VCSH SCT020 BKN035